createdAt,value
2019-03-23T00:02:05.908Z,11.93
2019-03-23T00:04:53.800Z,13.90
2019-03-23T00:07:22.384Z,10.30
2019-03-23T00:10:10.349Z,6.10
2019-03-23T00:12:58.267Z,7.43
2019-03-23T00:15:26.899Z,7.13
2019-03-23T00:17:55.484Z,10.57
2019-03-23T00:20:24.042Z,7.07
2019-03-23T00:22:52.628Z,8.17
2019-03-23T00:25:21.185Z,7.37
2019-03-23T00:27:49.771Z,10.63
2019-03-23T00:30:18.562Z,7.17
2019-03-23T00:32:47.154Z,9.83
2019-03-23T00:35:15.706Z,5.67
2019-03-23T00:37:44.289Z,7.93
2019-03-23T00:40:13.259Z,13.67
2019-03-23T00:42:41.848Z,8.83
2019-03-23T00:45:29.744Z,11.93
2019-03-23T00:48:17.756Z,14.63
2019-03-23T00:50:46.312Z,10.00
2019-03-23T00:53:14.897Z,14.30
2019-03-23T00:55:43.525Z,8.80
2019-03-23T00:58:12.115Z,8.20
2019-03-23T01:00:40.668Z,7.97
2019-03-23T01:03:28.585Z,9.57
2019-03-23T01:05:57.147Z,11.53
2019-03-23T01:08:45.080Z,10.10
2019-03-23T01:11:13.641Z,11.63
2019-03-23T01:13:42.226Z,8.93
2019-03-23T01:16:10.860Z,11.53
2019-03-23T01:18:39.453Z,12.10
2019-03-23T01:21:08.011Z,8.57
2019-03-23T01:23:55.935Z,13.10
2019-03-23T01:26:24.498Z,8.70
2019-03-23T01:28:53.086Z,13.17
2019-03-23T01:31:40.982Z,8.85
2019-03-23T01:34:09.577Z,8.00
2019-03-23T01:36:38.141Z,11.33
2019-03-23T01:39:07.568Z,7.90
2019-03-23T01:41:36.130Z,9.43
2019-03-23T01:44:05.688Z,9.47
2019-03-23T01:46:34.244Z,6.92
2019-03-23T01:49:02.840Z,9.83
2019-03-23T01:51:31.393Z,9.47
2019-03-23T01:53:59.983Z,13.58
2019-03-23T01:56:28.552Z,14.35
2019-03-23T01:58:57.146Z,12.35
2019-03-23T02:01:25.708Z,11.10
2019-03-23T02:03:54.296Z,10.72
2019-03-23T02:06:42.248Z,9.80
2019-03-23T02:09:10.836Z,10.20
2019-03-23T02:11:39.400Z,10.45
2019-03-23T02:14:07.997Z,14.25
2019-03-23T02:16:36.550Z,9.00
2019-03-23T02:19:05.283Z,11.65
2019-03-23T02:21:33.843Z,9.00
2019-03-23T02:24:02.442Z,12.53
2019-03-23T02:26:31.005Z,8.70
2019-03-23T02:29:11.409Z,11.35
2019-03-23T02:31:39.989Z,15.15
2019-03-23T02:34:08.563Z,12.00
2019-03-23T02:36:37.126Z,9.93
2019-03-23T02:39:25.052Z,8.83
2019-03-23T02:41:53.610Z,8.08
2019-03-23T02:44:22.212Z,13.22
2019-03-23T02:47:10.104Z,11.33
2019-03-23T02:49:38.707Z,12.63
2019-03-23T02:52:07.268Z,10.45
2019-03-23T02:54:35.856Z,11.93
2019-03-23T02:57:04.556Z,14.03
2019-03-23T02:59:33.154Z,12.70
2019-03-23T03:02:01.777Z,8.73
2019-03-23T03:04:49.712Z,12.90
2019-03-23T03:07:18.273Z,10.10
2019-03-23T03:09:46.870Z,14.00
2019-03-23T03:12:15.426Z,9.28
2019-03-23T03:14:44.024Z,14.93
2019-03-23T03:17:12.577Z,10.70
2019-03-23T03:19:41.169Z,11.00
2019-03-23T03:22:29.078Z,11.48
2019-03-23T03:25:17.000Z,13.10
2019-03-23T03:27:45.563Z,9.18
2019-03-23T03:30:14.419Z,10.15
2019-03-23T03:32:42.980Z,13.45
2019-03-23T03:35:30.913Z,12.65
2019-03-23T03:37:59.475Z,11.60
2019-03-23T03:40:28.062Z,9.45
2019-03-23T03:42:56.694Z,11.00
2019-03-23T03:45:26.918Z,11.78
2019-03-23T03:47:55.551Z,11.33
2019-03-23T03:50:43.475Z,10.70
2019-03-23T03:53:12.033Z,10.72
2019-03-23T03:55:40.625Z,13.48
2019-03-23T03:58:09.185Z,14.10
2019-03-23T04:00:37.782Z,12.82
2019-03-23T04:03:06.340Z,11.05
2019-03-23T04:05:34.974Z,12.50
2019-03-23T04:08:11.031Z,15.53
2019-03-23T04:10:33.772Z,13.03
2019-03-23T04:13:02.324Z,11.15
2019-03-23T04:15:50.416Z,10.35
2019-03-23T04:18:18.985Z,11.53
2019-03-23T04:20:47.572Z,11.18
2019-03-23T04:23:16.140Z,9.35
2019-03-23T04:25:44.717Z,10.35
2019-03-23T04:28:13.278Z,10.40
2019-03-23T04:30:41.896Z,9.53
2019-03-23T04:33:10.471Z,11.33
2019-03-23T04:35:58.398Z,11.00
2019-03-23T04:38:27.027Z,14.20
2019-03-23T04:40:55.616Z,12.03
2019-03-23T04:43:24.174Z,9.55
2019-03-23T04:45:52.756Z,9.48
2019-03-23T04:48:21.308Z,9.55
2019-03-23T04:50:49.925Z,13.38
2019-03-23T04:53:18.486Z,9.60
2019-03-23T04:55:47.072Z,10.90
2019-03-23T04:58:15.632Z,12.82
2019-03-23T05:00:44.229Z,10.90
2019-03-23T05:03:12.783Z,10.08
2019-03-23T05:05:41.372Z,11.43
2019-03-23T05:08:09.932Z,11.63
2019-03-23T05:10:38.536Z,12.37
2019-03-23T05:13:07.096Z,14.30
2019-03-23T05:15:35.683Z,11.57
2019-03-23T05:18:04.246Z,13.85
2019-03-23T05:20:33.103Z,11.85
2019-03-23T05:23:01.731Z,14.45
2019-03-23T05:25:49.651Z,12.78
2019-03-23T05:28:18.207Z,10.35
2019-03-23T05:31:07.105Z,17.25
2019-03-23T05:33:35.800Z,13.03
2019-03-23T05:36:04.462Z,11.43
2019-03-23T05:38:43.569Z,12.40
2019-03-23T05:41:03.306Z,12.20
2019-03-23T05:43:31.865Z,11.70
2019-03-23T05:46:00.461Z,15.32
2019-03-23T05:48:29.019Z,14.03
2019-03-23T05:50:57.609Z,12.37
2019-03-23T05:53:26.168Z,8.85
2019-03-23T05:55:54.760Z,14.90
2019-03-23T05:58:23.320Z,11.05
2019-03-23T06:00:51.910Z,12.10
2019-03-23T06:03:39.802Z,12.58
2019-03-23T06:06:08.452Z,12.73
2019-03-23T06:08:37.011Z,14.15
2019-03-23T06:11:05.600Z,12.05
2019-03-23T06:13:53.495Z,10.35
2019-03-23T06:16:22.088Z,14.45
2019-03-23T06:18:50.644Z,13.78
2019-03-23T06:21:19.226Z,8.48
2019-03-23T06:23:47.788Z,12.45
2019-03-23T06:26:16.445Z,13.20
2019-03-23T06:28:45.010Z,14.80
2019-03-23T06:31:13.592Z,11.38
2019-03-23T06:33:42.156Z,15.50
2019-03-23T06:36:10.748Z,14.45
2019-03-23T06:38:39.390Z,11.50
2019-03-23T06:41:07.977Z,13.58
2019-03-23T06:43:36.535Z,12.20
2019-03-23T06:46:05.204Z,17.60
2019-03-23T06:48:33.764Z,15.60
2019-03-23T06:51:03.398Z,17.92
2019-03-23T06:53:32.086Z,12.20
2019-03-23T06:56:00.680Z,16.17
2019-03-23T06:58:29.245Z,19.25
2019-03-23T07:00:57.840Z,11.38
2019-03-23T07:03:26.468Z,11.53
2019-03-23T07:05:55.069Z,10.55
2019-03-23T07:08:31.628Z,12.28
2019-03-23T07:11:13.205Z,15.03
2019-03-23T07:13:41.764Z,15.63
2019-03-23T07:16:10.347Z,19.37
2019-03-23T07:18:58.245Z,14.60
2019-03-23T07:21:26.834Z,12.20
2019-03-23T07:23:55.396Z,13.00
2019-03-23T07:26:23.985Z,15.67
2019-03-23T07:28:52.536Z,11.50
2019-03-23T07:31:21.129Z,16.27
2019-03-23T07:33:49.685Z,17.60
2019-03-23T07:36:18.272Z,21.73
2019-03-23T07:38:46.828Z,12.73
2019-03-23T07:41:15.416Z,12.80
2019-03-23T07:43:43.971Z,14.30
2019-03-23T07:46:12.563Z,18.73
2019-03-23T07:48:41.130Z,17.57
2019-03-23T07:51:29.061Z,18.87
2019-03-23T07:54:17.033Z,16.90
2019-03-23T07:56:45.630Z,20.93
2019-03-23T07:59:14.193Z,16.67
2019-03-23T08:01:42.785Z,22.17
2019-03-23T08:04:30.685Z,16.20
2019-03-23T08:07:18.617Z,17.47
2019-03-23T08:09:47.215Z,17.73
2019-03-23T08:12:15.777Z,17.40
2019-03-23T08:14:44.344Z,22.20
2019-03-23T08:17:12.930Z,20.07
2019-03-23T08:19:41.493Z,17.33
2019-03-23T08:22:11.242Z,17.70
2019-03-23T08:24:39.853Z,19.57
2019-03-23T08:27:27.783Z,20.13
2019-03-23T08:29:56.383Z,25.30
2019-03-23T08:32:44.280Z,24.00
2019-03-23T08:35:12.878Z,24.20
2019-03-23T08:37:41.445Z,25.20
2019-03-23T08:40:29.385Z,27.03
2019-03-23T08:42:57.940Z,35.43
2019-03-23T08:45:26.537Z,28.93
2019-03-23T08:47:55.099Z,29.37
2019-03-23T08:50:23.774Z,27.60
2019-03-23T08:52:52.332Z,27.60
2019-03-23T08:55:21.995Z,28.73
2019-03-23T08:57:50.676Z,24.30
2019-03-23T09:00:19.276Z,25.83
2019-03-23T09:02:47.841Z,27.40
2019-03-23T09:05:16.440Z,26.80
2019-03-23T09:08:04.404Z,34.30
2019-03-23T09:10:33.001Z,34.37
2019-03-23T09:13:01.569Z,27.93
2019-03-23T09:15:30.161Z,29.03
2019-03-23T09:17:58.728Z,32.20
2019-03-23T09:20:29.408Z,27.47
2019-03-23T09:23:16.872Z,28.00
2019-03-23T09:25:45.759Z,30.67
2019-03-23T09:28:14.428Z,29.47
2019-03-23T09:30:43.090Z,26.53
2019-03-23T09:33:11.721Z,30.60
2019-03-23T09:35:40.379Z,29.50
2019-03-23T09:38:08.945Z,25.17
2019-03-23T09:40:37.533Z,28.20
2019-03-23T09:43:25.432Z,27.53
2019-03-23T09:46:13.363Z,35.93
2019-03-23T09:48:41.922Z,30.67
2019-03-23T09:51:29.843Z,29.87
2019-03-23T09:54:17.805Z,32.43
2019-03-23T09:56:46.398Z,34.57
2019-03-23T09:59:34.300Z,29.57
2019-03-23T10:02:02.897Z,32.03
2019-03-23T10:04:31.467Z,32.80
2019-03-23T10:07:19.410Z,34.10
2019-03-23T10:09:47.973Z,39.07
2019-03-23T10:12:16.565Z,35.10
2019-03-23T10:14:45.124Z,38.07
2019-03-23T10:17:13.716Z,31.80
2019-03-23T10:19:42.628Z,35.13
2019-03-23T10:22:30.557Z,36.80
2019-03-23T10:24:59.125Z,39.67
2019-03-23T10:27:27.721Z,37.10
2019-03-23T10:29:56.287Z,39.53
2019-03-23T10:32:24.880Z,38.50
2019-03-23T10:34:53.442Z,39.30
2019-03-23T10:37:41.368Z,42.43
2019-03-23T10:40:11.165Z,47.27
2019-03-23T10:42:39.756Z,44.63
2019-03-23T10:45:09.262Z,49.43
2019-03-23T10:50:25.701Z,51.60
2019-03-23T10:52:54.288Z,51.23
2019-03-23T10:55:22.864Z,55.60
2019-03-23T10:57:51.457Z,53.97
2019-03-23T11:00:20.082Z,55.63
2019-03-23T11:03:08.014Z,56.17
2019-03-23T11:05:36.576Z,56.97
2019-03-23T11:08:05.173Z,56.40
2019-03-23T11:10:41.520Z,55.50
2019-03-23T11:13:03.980Z,54.07
2019-03-23T11:15:32.534Z,56.53
2019-03-23T11:18:01.135Z,57.33
2019-03-23T11:20:29.695Z,56.03
2019-03-23T11:23:17.632Z,47.47
2019-03-23T11:26:05.556Z,44.23
2019-03-23T11:28:34.116Z,45.40
2019-03-23T11:31:02.705Z,47.40
2019-03-23T11:33:50.605Z,49.10
2019-03-23T11:36:19.192Z,52.30
2019-03-23T11:39:07.163Z,52.00
2019-03-23T11:41:55.092Z,44.40
2019-03-23T11:44:23.654Z,50.47
2019-03-23T11:46:52.243Z,46.93
2019-03-23T11:49:20.800Z,47.70
2019-03-23T11:51:49.392Z,45.73
2019-03-23T11:54:17.958Z,42.87
2019-03-23T11:57:05.889Z,48.23
2019-03-23T11:59:34.531Z,51.03
2019-03-23T12:02:03.197Z,46.87
2019-03-23T12:04:31.856Z,51.93
2019-03-23T12:07:00.461Z,47.53
2019-03-23T12:09:29.021Z,45.40
2019-03-23T12:11:57.616Z,46.97
2019-03-23T12:14:26.183Z,47.73
2019-03-23T12:17:14.277Z,48.27
2019-03-23T12:19:42.846Z,43.87
2019-03-23T12:22:11.434Z,41.67
2019-03-23T12:24:40.000Z,44.10
2019-03-23T12:27:08.584Z,44.47
2019-03-23T12:29:37.159Z,41.60
2019-03-23T12:32:05.825Z,44.77
2019-03-23T12:34:34.391Z,42.57
2019-03-23T12:37:15.466Z,41.60
2019-03-23T12:39:44.023Z,40.33
2019-03-23T12:42:12.617Z,42.50
2019-03-23T12:44:41.188Z,47.00
2019-03-23T12:47:09.772Z,45.60
2019-03-23T12:49:38.331Z,42.50
2019-03-23T12:52:06.925Z,42.90
2019-03-23T12:54:35.487Z,43.60
2019-03-23T12:57:04.152Z,42.80
2019-03-23T12:59:32.720Z,46.27
2019-03-23T13:02:01.311Z,42.70
2019-03-23T13:04:29.881Z,41.67
2019-03-23T13:06:58.534Z,39.70
2019-03-23T13:09:27.100Z,41.90
2019-03-23T13:11:55.696Z,41.63
2019-03-23T13:14:24.263Z,47.37
2019-03-23T13:16:52.862Z,41.57
2019-03-23T13:19:21.421Z,43.07
2019-03-23T13:21:50.013Z,46.53
2019-03-23T13:24:18.577Z,42.07
2019-03-23T13:26:47.184Z,40.10
2019-03-23T13:29:15.748Z,40.10
2019-03-23T13:31:44.341Z,39.40
2019-03-23T13:34:12.908Z,44.77
2019-03-23T13:36:41.504Z,41.73
2019-03-23T13:39:29.409Z,41.17
2019-03-23T13:41:58.006Z,38.60
2019-03-23T13:44:26.569Z,38.83
2019-03-23T13:46:55.167Z,41.73
2019-03-23T13:49:23.752Z,36.67
2019-03-23T13:51:52.284Z,42.97
2019-03-23T13:54:20.877Z,42.30
2019-03-23T13:57:08.805Z,38.67
2019-03-23T13:59:37.376Z,40.00
2019-03-23T14:02:06.305Z,42.13
2019-03-23T14:04:34.868Z,38.27
2019-03-23T14:07:03.433Z,40.53
2019-03-23T14:09:32.036Z,41.97
2019-03-23T14:12:00.592Z,40.33
2019-03-23T14:14:29.185Z,41.00
2019-03-23T14:16:57.745Z,40.03
2019-03-23T14:19:26.339Z,40.57
2019-03-23T14:21:54.909Z,38.60
2019-03-23T14:24:23.495Z,39.77
2019-03-23T14:26:52.059Z,41.17
2019-03-23T14:29:20.646Z,42.33
2019-03-23T14:31:49.280Z,41.57
2019-03-23T14:34:17.874Z,42.77
2019-03-23T14:36:46.447Z,38.57
2019-03-23T14:39:34.367Z,38.17
2019-03-23T14:42:05.149Z,41.60
2019-03-23T14:44:33.169Z,40.90
2019-03-23T14:47:01.729Z,43.70
2019-03-23T14:49:30.323Z,39.30
2019-03-23T14:51:58.885Z,37.67
2019-03-23T14:54:27.485Z,40.77
2019-03-23T14:56:56.047Z,41.47
2019-03-23T14:59:24.639Z,36.90
2019-03-23T15:01:53.215Z,49.93
2019-03-23T15:04:21.833Z,47.80
2019-03-23T15:07:09.733Z,49.57
2019-03-23T15:09:38.326Z,56.20
2019-03-23T15:12:14.765Z,56.00
2019-03-23T15:14:37.129Z,65.07
2019-03-23T15:17:05.697Z,67.23
2019-03-23T15:19:34.293Z,64.63
2019-03-23T15:22:02.848Z,63.50
2019-03-23T15:24:31.447Z,67.30
2019-03-23T15:27:00.000Z,65.07
2019-03-23T15:29:28.601Z,66.87
2019-03-23T15:31:57.163Z,72.90
2019-03-23T15:34:25.757Z,67.00
2019-03-23T15:37:13.653Z,69.97
2019-03-23T15:39:42.253Z,68.67
2019-03-23T15:42:10.821Z,66.60
2019-03-23T15:44:39.411Z,67.70
2019-03-23T15:47:07.971Z,65.30
2019-03-23T15:49:36.565Z,62.47
2019-03-23T15:52:05.201Z,62.43
2019-03-23T15:54:33.801Z,63.80
2019-03-23T15:57:02.356Z,63.97
2019-03-23T15:59:30.948Z,68.10
2019-03-23T16:01:59.516Z,61.67
2019-03-23T16:04:28.110Z,62.00
2019-03-23T16:06:56.939Z,64.50
2019-03-23T16:09:25.571Z,63.03
2019-03-23T16:11:54.133Z,61.27
2019-03-23T16:14:42.062Z,62.67
2019-03-23T16:17:22.806Z,60.63
2019-03-23T16:20:03.502Z,56.83
2019-03-23T16:22:32.056Z,58.57
2019-03-23T16:25:00.660Z,56.13
2019-03-23T16:27:29.215Z,56.50
2019-03-23T16:29:57.809Z,53.93
2019-03-23T16:32:26.374Z,57.93
2019-03-23T16:34:54.977Z,55.40
2019-03-23T16:37:23.540Z,58.20
2019-03-23T16:39:54.668Z,54.57
2019-03-23T16:42:23.229Z,57.43
2019-03-23T16:44:51.821Z,57.00
2019-03-23T16:47:20.456Z,55.33
2019-03-23T16:49:49.048Z,58.37
2019-03-23T16:52:17.611Z,62.07
2019-03-23T16:54:46.199Z,58.27
2019-03-23T16:57:14.770Z,63.40
2019-03-23T16:59:43.360Z,67.93
2019-03-23T17:02:11.926Z,63.73
2019-03-23T17:04:40.515Z,65.50
2019-03-23T17:07:09.080Z,66.87
2019-03-23T17:09:37.736Z,62.57
2019-03-23T17:12:06.296Z,64.13
2019-03-23T17:14:55.735Z,64.97
2019-03-23T17:17:24.293Z,65.13
2019-03-23T17:19:52.885Z,68.80
2019-03-23T17:22:21.446Z,63.60
2019-03-23T17:24:50.065Z,68.90
2019-03-23T17:27:18.633Z,63.70
2019-03-23T17:29:47.225Z,68.10
2019-03-23T17:32:15.794Z,66.97
2019-03-23T17:34:44.379Z,68.63
2019-03-23T17:37:12.945Z,72.90
2019-03-23T17:39:41.553Z,77.00
2019-03-23T17:42:10.117Z,70.13
2019-03-23T17:44:58.048Z,71.90
2019-03-23T17:47:46.014Z,70.53
2019-03-23T17:50:14.844Z,70.03
2019-03-23T17:52:43.572Z,66.67
2019-03-23T17:55:31.497Z,73.13
2019-03-23T17:58:00.061Z,72.47
2019-03-23T18:00:29.340Z,72.33
2019-03-23T18:02:58.064Z,80.30
2019-03-23T18:05:26.656Z,71.77
2019-03-23T18:07:55.221Z,74.10
2019-03-23T18:10:43.149Z,79.13
2019-03-23T18:13:16.406Z,74.87
2019-03-23T18:15:41.948Z,76.93
2019-03-23T18:18:10.518Z,73.87
2019-03-23T18:20:39.099Z,76.90
2019-03-23T18:23:07.664Z,79.23
2019-03-23T18:25:36.320Z,79.20
2019-03-23T18:28:04.947Z,82.27
2019-03-23T18:30:39.117Z,74.83
2019-03-23T18:33:07.916Z,82.37
2019-03-23T18:35:36.739Z,80.90
2019-03-23T18:38:06.045Z,81.27
2019-03-23T18:40:34.971Z,77.00
2019-03-23T18:43:03.876Z,78.93
2019-03-23T18:45:32.465Z,77.90
2019-03-23T18:48:01.168Z,83.50
2019-03-23T18:50:29.761Z,85.20
2019-03-23T18:52:58.340Z,83.67
2019-03-23T18:55:26.987Z,80.17
2019-03-23T18:57:57.716Z,79.67
2019-03-23T19:00:42.069Z,80.07
2019-03-23T19:03:11.375Z,83.40
2019-03-23T19:05:40.029Z,79.70
2019-03-23T19:08:08.669Z,78.80
2019-03-23T19:10:37.424Z,85.13
2019-03-23T19:13:06.156Z,90.33
2019-03-23T19:15:54.085Z,93.63
2019-03-23T19:18:22.643Z,92.33
2019-03-23T19:20:51.236Z,93.80
2019-03-23T19:23:19.805Z,101.03
2019-03-23T19:26:07.737Z,95.37
2019-03-23T19:28:36.309Z,92.77
2019-03-23T19:31:04.967Z,93.83
2019-03-23T19:33:33.528Z,93.20
2019-03-23T19:36:21.459Z,104.57
2019-03-23T19:38:50.040Z,98.63
2019-03-23T19:41:18.624Z,101.27
2019-03-23T19:43:49.778Z,100.67
2019-03-23T19:46:36.786Z,104.83
2019-03-23T19:49:05.332Z,100.23
2019-03-23T19:51:53.256Z,95.43
2019-03-23T19:54:21.817Z,95.50
2019-03-23T19:56:50.403Z,93.03
2019-03-23T19:59:18.961Z,96.53
2019-03-23T20:01:47.567Z,102.70
2019-03-23T20:04:16.118Z,97.80
2019-03-23T20:07:04.215Z,102.50
2019-03-23T20:09:32.777Z,86.53
2019-03-23T20:12:01.373Z,94.33
2019-03-23T20:14:29.937Z,93.63
2019-03-23T20:16:58.532Z,93.33
2019-03-23T20:19:27.102Z,94.80
2019-03-23T20:21:55.759Z,91.97
2019-03-23T20:24:24.326Z,90.33
2019-03-23T20:26:52.928Z,96.60
2019-03-23T20:29:21.479Z,105.33
2019-03-23T20:31:50.072Z,97.43
2019-03-23T20:34:37.979Z,99.50
2019-03-23T20:37:08.349Z,94.23
2019-03-23T20:39:36.785Z,93.57
2019-03-23T20:42:05.636Z,93.07
2019-03-23T20:44:34.205Z,90.97
2019-03-23T20:47:02.864Z,92.77
2019-03-23T20:49:31.664Z,92.80
2019-03-23T20:52:00.367Z,93.03
2019-03-23T20:54:29.257Z,96.23
2019-03-23T20:56:57.844Z,94.07
2019-03-23T20:59:26.404Z,92.60
2019-03-23T21:01:55.003Z,93.37
2019-03-23T21:04:23.556Z,96.17
2019-03-23T21:06:52.155Z,103.17
2019-03-23T21:09:20.716Z,100.70
2019-03-23T21:11:49.320Z,104.50
2019-03-23T21:14:20.551Z,107.53
2019-03-23T21:16:48.132Z,98.37
2019-03-23T21:19:16.688Z,99.53
2019-03-23T21:21:45.276Z,100.97
2019-03-23T21:24:33.252Z,102.90
2019-03-23T21:27:21.189Z,103.73
2019-03-23T21:29:49.756Z,100.83
2019-03-23T21:32:18.358Z,106.10
2019-03-23T21:34:46.915Z,108.30
2019-03-23T21:37:34.849Z,100.47
2019-03-23T21:40:04.052Z,102.10
2019-03-23T21:42:32.639Z,92.70
2019-03-23T21:45:20.600Z,98.37
2019-03-23T21:47:49.197Z,100.10
2019-03-23T21:50:17.833Z,107.50
2019-03-23T21:52:46.420Z,107.60
2019-03-23T21:55:34.409Z,109.43
2019-03-23T21:58:22.341Z,101.90
2019-03-23T22:01:10.237Z,100.60
2019-03-23T22:03:38.829Z,108.10
2019-03-23T22:06:07.396Z,106.97
2019-03-23T22:08:35.990Z,110.37
2019-03-23T22:11:04.623Z,113.73
2019-03-23T22:13:33.297Z,110.40
2019-03-23T22:16:01.868Z,109.33
2019-03-23T22:18:30.456Z,108.43
2019-03-23T22:20:59.016Z,114.10
2019-03-23T22:23:27.604Z,112.97
2019-03-23T22:25:56.180Z,119.90
2019-03-23T22:28:24.782Z,111.43
2019-03-23T22:31:12.687Z,120.20
2019-03-23T22:33:41.263Z,122.60
2019-03-23T22:36:09.824Z,120.43
2019-03-23T22:38:38.422Z,118.53
2019-03-23T22:41:07.059Z,123.03
2019-03-23T22:43:54.988Z,117.37
2019-03-23T22:46:42.903Z,129.50
2019-03-23T22:49:11.494Z,113.17
2019-03-23T22:51:59.393Z,115.43
2019-03-23T22:54:27.979Z,106.47
2019-03-23T22:57:15.881Z,112.60
2019-03-23T22:59:44.469Z,116.17
2019-03-23T23:02:13.175Z,111.17
2019-03-23T23:04:41.846Z,116.57
2019-03-23T23:07:10.404Z,113.00
2019-03-23T23:09:38.993Z,104.90
2019-03-23T23:12:26.888Z,113.00
2019-03-23T23:15:03.995Z,108.60
2019-03-23T23:17:25.706Z,238.43
2019-03-23T23:20:06.543Z,267.90
2019-03-23T23:22:35.109Z,271.67
2019-03-23T23:25:05.873Z,220.30
2019-03-23T23:27:34.432Z,155.10
2019-03-23T23:30:22.359Z,125.37
2019-03-23T23:32:51.120Z,120.97
2019-03-23T23:35:19.759Z,125.60
2019-03-23T23:37:48.320Z,114.50
2019-03-23T23:40:36.416Z,115.13
2019-03-23T23:43:24.407Z,115.27
2019-03-23T23:45:52.972Z,125.80
2019-03-23T23:48:21.572Z,115.47
2019-03-23T23:50:50.137Z,112.97
2019-03-23T23:53:38.157Z,110.63
2019-03-23T23:56:06.797Z,117.77
2019-03-23T23:58:35.388Z,116.83
